createdAt,value
2019-02-25T00:02:27.629Z,17.03
2019-02-25T00:04:58.245Z,16.73
2019-02-25T00:07:28.957Z,16.83
2019-02-25T00:10:04.095Z,17.33
2019-02-25T00:12:34.467Z,16.43
2019-02-25T00:15:05.579Z,17.40
2019-02-25T00:17:37.131Z,15.57
2019-02-25T00:20:10.272Z,17.33
2019-02-25T00:22:41.747Z,16.80
2019-02-25T00:25:12.736Z,17.13
2019-02-25T00:27:47.465Z,17.50
2019-02-25T00:30:19.585Z,16.30
2019-02-25T00:32:56.315Z,16.63
2019-02-25T00:35:28.260Z,16.03
2019-02-25T00:37:59.911Z,16.07
2019-02-25T00:40:32.638Z,14.57
2019-02-25T00:43:01.751Z,15.77
2019-02-25T00:45:31.901Z,15.83
2019-02-25T00:48:08.136Z,16.67
2019-02-25T00:50:43.879Z,14.97
2019-02-25T00:53:21.704Z,15.40
2019-02-25T00:55:50.893Z,15.83
2019-02-25T00:58:22.659Z,15.20
2019-02-25T01:00:53.278Z,15.83
2019-02-25T01:03:25.373Z,16.17
2019-02-25T01:06:03.457Z,16.03
2019-02-25T01:08:42.234Z,14.00
2019-02-25T01:11:17.090Z,15.80
2019-02-25T01:13:47.322Z,15.50
2019-02-25T01:16:19.561Z,14.80
2019-02-25T01:18:53.105Z,15.10
2019-02-25T01:21:22.604Z,12.57
2019-02-25T01:23:52.951Z,13.80
2019-02-25T01:26:29.283Z,14.60
2019-02-25T01:29:00.153Z,14.90
2019-02-25T01:31:34.238Z,14.70
2019-02-25T01:34:06.726Z,15.37
2019-02-25T01:36:43.713Z,13.77
2019-02-25T01:39:15.701Z,14.73
2019-02-25T01:42:07.329Z,13.80
2019-02-25T01:44:40.926Z,14.03
2019-02-25T01:47:12.487Z,13.90
2019-02-25T01:52:29.854Z,14.50
2019-02-25T01:55:00.786Z,13.27
2019-02-25T01:57:31.484Z,13.60
2019-02-25T02:00:01.892Z,14.40
2019-02-25T02:02:38.180Z,13.27
2019-02-25T02:05:12.155Z,12.17
2019-02-25T02:07:44.147Z,13.13
2019-02-25T02:10:14.463Z,12.90
2019-02-25T02:12:51.634Z,12.73
2019-02-25T02:15:21.057Z,12.83
2019-02-25T02:17:54.939Z,11.87
2019-02-25T02:20:30.114Z,12.40
2019-02-25T02:23:03.496Z,12.80
2019-02-25T02:25:41.424Z,12.10
2019-02-25T02:28:14.861Z,11.63
2019-02-25T02:30:46.147Z,10.90
2019-02-25T02:33:19.582Z,12.23
2019-02-25T02:35:54.336Z,11.60
2019-02-25T02:38:27.669Z,11.93
2019-02-25T02:41:01.135Z,11.90
2019-02-25T02:43:31.233Z,10.70
2019-02-25T02:46:11.021Z,11.70
2019-02-25T02:48:44.830Z,11.30
2019-02-25T02:51:14.590Z,10.53
2019-02-25T02:53:45.907Z,10.70
2019-02-25T02:56:16.666Z,11.77
2019-02-25T02:58:46.425Z,11.30
2019-02-25T03:01:18.059Z,10.67
2019-02-25T03:03:49.740Z,11.33
2019-02-25T03:06:21.194Z,10.30
2019-02-25T03:08:55.337Z,10.10
2019-02-25T03:14:13.790Z,10.17
2019-02-25T03:16:47.994Z,10.17
2019-02-25T03:21:55.058Z,9.47
2019-02-25T03:24:26.478Z,10.10
2019-02-25T03:26:59.954Z,9.43
2019-02-25T03:29:33.394Z,9.67
2019-02-25T03:32:04.045Z,9.97
2019-02-25T03:34:34.958Z,8.93
2019-02-25T03:37:05.911Z,8.97
2019-02-25T03:42:16.811Z,9.90
2019-02-25T03:44:46.581Z,10.13
2019-02-25T03:47:16.244Z,9.47
2019-02-25T03:49:50.633Z,9.70
2019-02-25T03:54:59.799Z,9.60
2019-02-25T03:57:32.232Z,9.70
2019-02-25T04:00:05.039Z,9.43
2019-02-25T04:02:36.415Z,9.23
2019-02-25T04:05:11.385Z,10.07
2019-02-25T04:07:41.513Z,10.33
2019-02-25T04:10:15.049Z,10.13
2019-02-25T04:12:48.515Z,9.10
2019-02-25T04:15:22.558Z,10.37
2019-02-25T04:18:02.334Z,10.03
2019-02-25T04:20:32.786Z,10.03
2019-02-25T04:23:04.099Z,10.17
2019-02-25T04:25:37.916Z,10.77
2019-02-25T04:28:10.601Z,10.27
2019-02-25T04:30:41.500Z,10.90
2019-02-25T04:33:16.326Z,10.63
2019-02-25T04:35:56.047Z,9.97
2019-02-25T04:38:27.604Z,10.60
2019-02-25T04:40:58.565Z,11.57
2019-02-25T04:43:29.427Z,11.00
2019-02-25T04:46:02.487Z,10.60
2019-02-25T04:48:33.279Z,10.33
2019-02-25T04:51:06.548Z,10.23
2019-02-25T04:53:37.291Z,10.97
2019-02-25T04:56:14.692Z,11.17
2019-02-25T04:58:47.373Z,11.57
2019-02-25T05:01:18.387Z,10.83
2019-02-25T05:03:48.085Z,11.57
2019-02-25T05:06:21.461Z,10.93
2019-02-25T05:08:51.486Z,10.90
2019-02-25T05:11:32.779Z,11.13
2019-02-25T05:14:03.118Z,10.90
2019-02-25T05:16:33.361Z,11.27
2019-02-25T05:19:07.624Z,11.37
2019-02-25T05:21:37.083Z,11.50
2019-02-25T05:24:10.316Z,10.47
2019-02-25T05:26:39.886Z,10.37
2019-02-25T05:29:17.115Z,12.13
2019-02-25T05:31:49.323Z,11.97
2019-02-25T05:34:18.975Z,11.73
2019-02-25T05:39:28.068Z,11.73
2019-02-25T05:42:07.323Z,12.73
2019-02-25T05:44:40.504Z,10.60
2019-02-25T05:47:14.463Z,10.67
2019-02-25T05:49:45.547Z,11.93
2019-02-25T05:52:22.887Z,11.70
2019-02-25T05:54:59.177Z,11.30
2019-02-25T05:57:34.123Z,12.03
2019-02-25T06:00:05.454Z,11.50
2019-02-25T06:02:36.732Z,11.57
2019-02-25T06:05:12.122Z,11.10
2019-02-25T06:07:45.647Z,12.13
2019-02-25T06:10:16.097Z,11.03
2019-02-25T06:12:47.476Z,10.87
2019-02-25T06:15:22.568Z,11.30
2019-02-25T06:17:56.838Z,11.07
2019-02-25T06:23:10.911Z,10.57
2019-02-25T06:25:41.211Z,11.40
2019-02-25T06:28:20.252Z,11.37
2019-02-25T06:30:49.741Z,10.63
2019-02-25T06:33:18.960Z,9.73
2019-02-25T06:35:54.092Z,11.97
2019-02-25T06:40:59.198Z,11.43
2019-02-25T06:43:30.084Z,11.47
2019-02-25T06:46:00.266Z,11.77
2019-02-25T06:48:31.125Z,12.50
2019-02-25T06:51:03.059Z,11.97
2019-02-25T06:53:35.474Z,11.30
2019-02-25T06:56:08.203Z,11.77
2019-02-25T06:58:46.517Z,10.93
2019-02-25T07:01:23.305Z,11.20
2019-02-25T07:04:13.853Z,12.17
2019-02-25T07:07:04.392Z,12.07
2019-02-25T07:09:38.971Z,12.00
2019-02-25T07:12:16.524Z,10.53
2019-02-25T07:14:57.019Z,11.40
2019-02-25T07:17:31.681Z,11.17
2019-02-25T07:20:42.695Z,11.10
2019-02-25T07:23:19.494Z,10.83
2019-02-25T07:26:06.382Z,10.90
2019-02-25T07:29:10.510Z,11.10
2019-02-25T07:31:51.390Z,11.33
2019-02-25T07:34:31.114Z,9.87
2019-02-25T07:37:06.517Z,11.77
2019-02-25T07:39:57.340Z,10.83
2019-02-25T07:42:37.337Z,11.93
2019-02-25T07:46:18.271Z,11.27
2019-02-25T07:49:04.589Z,11.37
2019-02-25T07:51:41.796Z,11.57
2019-02-25T07:57:04.966Z,10.53
2019-02-25T08:02:41.764Z,11.23
2019-02-25T08:05:31.540Z,11.10
2019-02-25T08:08:20.003Z,10.87
2019-02-25T08:10:58.676Z,11.43
2019-02-25T08:13:39.792Z,11.10
2019-02-25T08:16:24.681Z,11.77
2019-02-25T08:18:59.556Z,10.93
2019-02-25T08:21:38.711Z,11.40
2019-02-25T08:27:17.094Z,12.33
2019-02-25T08:30:00.487Z,11.23
2019-02-25T08:32:35.974Z,11.97
2019-02-25T08:35:11.972Z,11.63
2019-02-25T08:38:28.402Z,12.40
2019-02-25T08:41:09.926Z,10.73
2019-02-25T08:44:57.587Z,11.50
2019-02-25T08:47:36.309Z,12.27
2019-02-25T08:50:10.115Z,11.87
2019-02-25T08:52:46.049Z,12.03
2019-02-25T08:55:23.594Z,12.77
2019-02-25T09:00:41.115Z,13.47
2019-02-25T09:06:30.085Z,13.70
2019-02-25T09:12:14.499Z,14.17
2019-02-25T09:14:43.567Z,12.93
2019-02-25T09:17:12.934Z,14.53
2019-02-25T09:19:43.507Z,13.23
2019-02-25T09:22:18.665Z,14.93
2019-02-25T09:24:48.328Z,13.93
2019-02-25T09:27:19.245Z,14.33
2019-02-25T09:29:48.792Z,13.13
2019-02-25T09:32:24.183Z,16.23
2019-02-25T09:34:53.628Z,14.13
2019-02-25T09:37:22.971Z,14.07
2019-02-25T09:39:53.003Z,15.33
2019-02-25T09:42:24.630Z,14.63
2019-02-25T09:44:54.757Z,14.90
2019-02-25T09:47:25.838Z,13.03
2019-02-25T09:49:55.428Z,14.80
2019-02-25T09:52:24.418Z,15.70
2019-02-25T09:54:56.145Z,14.10
2019-02-25T09:57:25.322Z,14.57
2019-02-25T09:59:55.537Z,15.00
2019-02-25T10:02:31.713Z,15.17
2019-02-25T10:05:03.723Z,14.03
2019-02-25T10:07:33.196Z,13.93
2019-02-25T10:10:04.362Z,15.00
2019-02-25T10:12:48.212Z,15.30
2019-02-25T10:15:18.538Z,14.27
2019-02-25T10:17:48.757Z,14.03
2019-02-25T10:20:18.559Z,14.13
2019-02-25T10:22:48.164Z,14.67
2019-02-25T10:25:20.006Z,13.77
2019-02-25T10:27:51.631Z,14.50
2019-02-25T10:30:26.390Z,14.60
2019-02-25T10:32:56.473Z,14.83
2019-02-25T10:35:28.247Z,15.67
2019-02-25T10:38:03.229Z,15.57
2019-02-25T10:40:35.755Z,16.40
2019-02-25T10:43:10.487Z,14.23
2019-02-25T10:45:43.377Z,14.07
2019-02-25T10:48:15.195Z,14.43
2019-02-25T10:53:53.947Z,16.13
2019-02-25T10:56:32.764Z,14.77
2019-02-25T10:59:05.701Z,14.93
2019-02-25T11:01:39.138Z,15.30
2019-02-25T11:04:06.652Z,15.17
2019-02-25T11:06:37.968Z,13.50
2019-02-25T11:09:18.109Z,15.20
2019-02-25T11:11:50.517Z,14.37
2019-02-25T11:14:23.106Z,14.70
2019-02-25T11:16:56.207Z,14.77
2019-02-25T11:19:28.555Z,13.57
2019-02-25T11:22:08.324Z,14.83
2019-02-25T11:24:36.485Z,15.43
2019-02-25T11:27:09.867Z,14.53
2019-02-25T11:29:42.518Z,12.97
2019-02-25T11:32:11.331Z,15.03
2019-02-25T11:34:43.005Z,15.00
2019-02-25T11:37:14.481Z,13.83
2019-02-25T11:39:52.481Z,14.47
2019-02-25T11:42:20.682Z,15.27
2019-02-25T11:45:04.365Z,14.23
2019-02-25T11:47:37.509Z,14.10
2019-02-25T11:50:14.229Z,14.93
2019-02-25T11:52:46.516Z,12.83
2019-02-25T11:55:17.929Z,14.87
2019-02-25T11:57:47.260Z,13.80
2019-02-25T12:00:19.029Z,14.30
2019-02-25T12:02:48.796Z,13.77
2019-02-25T12:05:20.197Z,15.20
2019-02-25T12:07:52.126Z,15.00
2019-02-25T12:10:22.211Z,14.80
2019-02-25T12:13:00.889Z,13.83
2019-02-25T12:15:30.694Z,15.30
2019-02-25T12:18:04.359Z,14.77
2019-02-25T12:20:34.174Z,14.47
2019-02-25T12:23:06.553Z,13.57
2019-02-25T12:25:46.856Z,12.20
2019-02-25T12:28:17.128Z,13.33
2019-02-25T12:30:48.321Z,14.13
2019-02-25T12:33:21.715Z,13.07
2019-02-25T12:35:50.890Z,12.57
2019-02-25T12:38:24.125Z,14.17
2019-02-25T12:40:54.511Z,15.33
2019-02-25T12:46:17.619Z,14.13
2019-02-25T12:48:50.097Z,13.67
2019-02-25T12:54:51.090Z,14.13
2019-02-25T13:03:43.233Z,14.33
2019-02-25T13:06:39.680Z,14.23
2019-02-25T13:12:17.980Z,14.03
2019-02-25T13:14:56.824Z,13.67
2019-02-25T13:20:17.740Z,14.77
2019-02-25T13:25:53.009Z,12.87
2019-02-25T13:28:39.046Z,12.77
2019-02-25T13:31:22.597Z,13.90
2019-02-25T13:34:07.730Z,12.07
2019-02-25T13:37:00.992Z,14.47
2019-02-25T13:39:52.692Z,12.90
2019-02-25T13:42:44.547Z,13.60
2019-02-25T13:45:16.127Z,14.33
2019-02-25T13:50:50.382Z,15.03
2019-02-25T13:53:25.956Z,14.13
2019-02-25T13:56:17.741Z,14.37
2019-02-25T14:01:48.875Z,14.47
2019-02-25T14:04:37.500Z,14.50
2019-02-25T14:10:22.413Z,14.17
2019-02-25T14:13:05.421Z,14.70
2019-02-25T14:15:47.014Z,14.20
2019-02-25T14:18:28.567Z,14.57
2019-02-25T14:33:36.887Z,14.90
2019-02-25T14:52:09.076Z,15.17
2019-02-25T14:55:07.130Z,16.50
